Baton Rouge, Louisiana
Current Conditions -  °F | °C
As of 7:53 PM on Thursday 18 Dec 2014 (Local Time) from KBTR Reporting Station
Overcast Overcast  
Wind Chill: 14°   Ceiling: 2900
Heat Index: 14°   Visibility: 7mi
Dew Point: 13°   Wind: 5mph
Humidity: 93%   Direction: 20°NNE
Pressure: 30.12"   Gusts: NA
Location:  30.44°N, 91.19°W
Report Text: KBTR 190153Z 02004KT 7SM OVC029 14/13 A3012 RMK AO2 RAB24E37 SLP200 P0000 T01390128
Loading
Personal Weather Stations






























Interactive Weather Map New forecast layout! Learn more

10-Day Weather Forecast

Advertisements
Track Severe Weather on mobile